Kittery, ME (03904)

12:35 PM EDT on April 29, 2017 (GMT -0400)
Cottages at Spruce Creek | | Change Station

Elev 0 ft 43.11 °N, 70.73 °W | Updated 16 seconds ago

Partly Cloudy
Partly Cloudy
80.6 °F
Feels Like 82 °F
N
4.0
Wind Variable Wind from SW
Gusts 4.9 mph

Today
High -- | Low -- °F
--% Chance of Precip.
Yesterday
High -- | Low -- °F
Precip. -- in
Pressure 29.85 in
Visibility 10.0 miles
Clouds Few 10000 ft
Scattered Clouds 16000 ft
Mostly Cloudy 25000 ft
Heat Index 82 °F
Dew Point 63 °F
Humidity 55%
Rainfall 0.00 in
Snow Depth Not available.
5:39 AM 7:42 PM
Waxing Crescent, 15% visible
METAR KPSM 291558Z 24009KT 10SM FEW100 SCT160 BKN250 27/10 A2984 RMK AO2A SLP106 T02690104
Pressure 29.85 in
Visibility 10.0 miles
Clouds Few 10000 ft
Scattered Clouds 16000 ft
Mostly Cloudy 25000 ft
Heat Index 82 °F
Dew Point 63 °F
Humidity 55%
Rainfall 0.00 in
Snow Depth Not available.
5:39 AM 7:42 PM
Waxing Crescent, 15% visible
METAR KPSM 291558Z 24009KT 10SM FEW100 SCT160 BKN250 27/10 A2984 RMK AO2A SLP106 T02690104

Get Severe Weather Alerts

Thanks for signing up!

Be on the lookout for a verification email in your inbox.

You'll start receiving the daily forecast at 8 AM.

×

10-Day Weather Forecast

Almanac

Astronomy

Apr. 29, 2017 Rise Set
Actual Time
Civil Twilight
Nautical Twilight
Astronomical Twilight
Moon
Length of Visible Light
Length of Day
Tomorrow will be .
, % of the Moon is Illuminated

Today's Extremes

State Highs State Lows

Community

WunderPhotos

WunderBlog® & News

Nearby

Air Quality

  Air Quality AQ Index Pollutant
Not available.

Snow Depth

Station Depth Elevation

Earthquake Activity

City Distance Mag. Time & Date
Minimum magnitude displayed is 2.5.

Coastal Water Temperatures

Place Temperature

Stations

Nearby Weather Stations

Station Location Temp. Windchill Dew Point Humidity Wind Precip. Elev Updated Type
                   

Watches & Warnings

There are currently no watches in effect.